sensor_id;sensor_type;location;lat;lon;timestamp;temperature;humidity
17659;DHT22;8948;51.534;8.262;2023-04-24T00:03:56;12.40;64.20
17659;DHT22;8948;51.534;8.262;2023-04-24T00:09:00;12.40;64.40
17659;DHT22;8948;51.534;8.262;2023-04-24T00:14:01;12.30;64.90
17659;DHT22;8948;51.534;8.262;2023-04-24T00:19:01;12.10;65.20
17659;DHT22;8948;51.534;8.262;2023-04-24T00:24:02;12.00;65.30
17659;DHT22;8948;51.534;8.262;2023-04-24T00:29:02;12.00;65.10
17659;DHT22;8948;51.534;8.262;2023-04-24T00:34:03;11.90;65.10
17659;DHT22;8948;51.534;8.262;2023-04-24T00:39:05;11.90;65.20
17659;DHT22;8948;51.534;8.262;2023-04-24T00:44:05;12.00;65.20
17659;DHT22;8948;51.534;8.262;2023-04-24T00:49:06;12.10;64.60
17659;DHT22;8948;51.534;8.262;2023-04-24T00:54:06;12.10;64.10
17659;DHT22;8948;51.534;8.262;2023-04-24T00:59:07;12.00;64.50
17659;DHT22;8948;51.534;8.262;2023-04-24T01:04:09;11.90;64.50
17659;DHT22;8948;51.534;8.262;2023-04-24T01:09:10;11.70;65.00
17659;DHT22;8948;51.534;8.262;2023-04-24T01:14:12;11.50;65.70
17659;DHT22;8948;51.534;8.262;2023-04-24T01:19:13;11.50;65.70
17659;DHT22;8948;51.534;8.262;2023-04-24T01:24:15;11.50;65.60
17659;DHT22;8948;51.534;8.262;2023-04-24T01:29:16;11.40;65.70
17659;DHT22;8948;51.534;8.262;2023-04-24T01:34:17;11.30;65.80
17659;DHT22;8948;51.534;8.262;2023-04-24T01:39:18;11.20;66.30
17659;DHT22;8948;51.534;8.262;2023-04-24T01:44:21;11.20;66.50
17659;DHT22;8948;51.534;8.262;2023-04-24T01:49:21;11.20;66.10
17659;DHT22;8948;51.534;8.262;2023-04-24T01:54:22;11.20;66.40
17659;DHT22;8948;51.534;8.262;2023-04-24T01:59:23;11.10;66.70
17659;DHT22;8948;51.534;8.262;2023-04-24T02:04:25;11.10;67.00
17659;DHT22;8948;51.534;8.262;2023-04-24T02:09:25;11.10;67.20
17659;DHT22;8948;51.534;8.262;2023-04-24T02:14:26;11.10;67.20
17659;DHT22;8948;51.534;8.262;2023-04-24T02:19:27;11.10;67.70
17659;DHT22;8948;51.534;8.262;2023-04-24T02:24:27;11.10;67.50
17659;DHT22;8948;51.534;8.262;2023-04-24T02:29:28;11.10;67.40
17659;DHT22;8948;51.534;8.262;2023-04-24T02:34:29;11.20;67.20
17659;DHT22;8948;51.534;8.262;2023-04-24T02:39:29;11.30;67.30
17659;DHT22;8948;51.534;8.262;2023-04-24T02:44:30;11.40;67.40
17659;DHT22;8948;51.534;8.262;2023-04-24T02:49:30;11.50;67.00
17659;DHT22;8948;51.534;8.262;2023-04-24T02:54:31;11.50;67.00
17659;DHT22;8948;51.534;8.262;2023-04-24T02:59:31;11.60;67.40
17659;DHT22;8948;51.534;8.262;2023-04-24T03:04:32;11.60;67.70
17659;DHT22;8948;51.534;8.262;2023-04-24T03:09:32;11.70;67.70
17659;DHT22;8948;51.534;8.262;2023-04-24T03:14:33;11.70;67.60
17659;DHT22;8948;51.534;8.262;2023-04-24T03:19:34;11.70;67.80
17659;DHT22;8948;51.534;8.262;2023-04-24T03:24:34;11.60;68.80
17659;DHT22;8948;51.534;8.262;2023-04-24T03:29:35;11.40;67.50
17659;DHT22;8948;51.534;8.262;2023-04-24T03:34:35;11.20;68.50
17659;DHT22;8948;51.534;8.262;2023-04-24T03:39:36;11.00;67.10
17659;DHT22;8948;51.534;8.262;2023-04-24T03:44:37;10.90;67.30
17659;DHT22;8948;51.534;8.262;2023-04-24T03:49:37;10.90;67.50
17659;DHT22;8948;51.534;8.262;2023-04-24T03:54:38;10.90;66.80
17659;DHT22;8948;51.534;8.262;2023-04-24T03:59:39;10.90;66.40
17659;DHT22;8948;51.534;8.262;2023-04-24T04:04:40;10.80;66.40
17659;DHT22;8948;51.534;8.262;2023-04-24T04:09:41;10.80;66.60
17659;DHT22;8948;51.534;8.262;2023-04-24T04:14:41;10.70;67.20
17659;DHT22;8948;51.534;8.262;2023-04-24T04:19:42;10.70;68.00
17659;DHT22;8948;51.534;8.262;2023-04-24T04:24:42;10.70;68.20
17659;DHT22;8948;51.534;8.262;2023-04-24T04:29:43;10.60;67.90
17659;DHT22;8948;51.534;8.262;2023-04-24T04:34:44;10.50;67.10
17659;DHT22;8948;51.534;8.262;2023-04-24T04:39:45;10.30;66.00
17659;DHT22;8948;51.534;8.262;2023-04-24T04:44:46;10.00;65.60
17659;DHT22;8948;51.534;8.262;2023-04-24T04:49:46;9.90;66.30
17659;DHT22;8948;51.534;8.262;2023-04-24T04:54:47;9.80;66.70
17659;DHT22;8948;51.534;8.262;2023-04-24T04:59:47;9.80;67.20
17659;DHT22;8948;51.534;8.262;2023-04-24T05:04:48;9.90;67.50
17659;DHT22;8948;51.534;8.262;2023-04-24T05:09:48;10.00;67.00
17659;DHT22;8948;51.534;8.262;2023-04-24T05:14:49;9.90;67.30
17659;DHT22;8948;51.534;8.262;2023-04-24T05:19:50;9.90;67.60
17659;DHT22;8948;51.534;8.262;2023-04-24T05:24:51;9.90;67.10
17659;DHT22;8948;51.534;8.262;2023-04-24T05:29:52;10.00;67.20
17659;DHT22;8948;51.534;8.262;2023-04-24T05:34:52;10.00;66.80
17659;DHT22;8948;51.534;8.262;2023-04-24T05:39:53;10.00;66.90
17659;DHT22;8948;51.534;8.262;2023-04-24T05:44:53;10.10;66.30
17659;DHT22;8948;51.534;8.262;2023-04-24T05:49:54;10.30;66.20
17659;DHT22;8948;51.534;8.262;2023-04-24T05:54:55;10.40;65.90
17659;DHT22;8948;51.534;8.262;2023-04-24T05:59:56;10.40;65.50
17659;DHT22;8948;51.534;8.262;2023-04-24T06:04:56;10.40;66.00
17659;DHT22;8948;51.534;8.262;2023-04-24T06:09:57;10.30;65.90
17659;DHT22;8948;51.534;8.262;2023-04-24T06:14:58;10.30;65.40
17659;DHT22;8948;51.534;8.262;2023-04-24T06:19:58;10.40;64.80
17659;DHT22;8948;51.534;8.262;2023-04-24T06:24:59;10.40;65.10
17659;DHT22;8948;51.534;8.262;2023-04-24T06:30:01;10.40;64.40
17659;DHT22;8948;51.534;8.262;2023-04-24T06:35:01;10.40;64.90
17659;DHT22;8948;51.534;8.262;2023-04-24T06:40:02;10.40;64.10
17659;DHT22;8948;51.534;8.262;2023-04-24T06:45:03;10.50;64.60
17659;DHT22;8948;51.534;8.262;2023-04-24T06:50:04;10.70;64.00
17659;DHT22;8948;51.534;8.262;2023-04-24T06:55:05;10.50;64.30
17659;DHT22;8948;51.534;8.262;2023-04-24T07:00:06;10.90;63.20
17659;DHT22;8948;51.534;8.262;2023-04-24T07:05:07;10.90;63.90
17659;DHT22;8948;51.534;8.262;2023-04-24T07:10:09;10.80;63.80
17659;DHT22;8948;51.534;8.262;2023-04-24T07:15:10;11.20;64.30
17659;DHT22;8948;51.534;8.262;2023-04-24T07:20:11;11.20;62.80
17659;DHT22;8948;51.534;8.262;2023-04-24T07:25:12;11.30;63.00
17659;DHT22;8948;51.534;8.262;2023-04-24T07:30:12;11.20;63.20
17659;DHT22;8948;51.534;8.262;2023-04-24T07:35:13;11.10;61.90
17659;DHT22;8948;51.534;8.262;2023-04-24T07:40:13;11.10;63.10
17659;DHT22;8948;51.534;8.262;2023-04-24T07:45:14;11.00;62.80
17659;DHT22;8948;51.534;8.262;2023-04-24T07:50:15;11.00;63.40
17659;DHT22;8948;51.534;8.262;2023-04-24T07:55:16;11.00;63.70
17659;DHT22;8948;51.534;8.262;2023-04-24T08:00:17;11.00;62.80
17659;DHT22;8948;51.534;8.262;2023-04-24T08:05:17;11.20;63.70
17659;DHT22;8948;51.534;8.262;2023-04-24T08:10:18;12.00;62.80
17659;DHT22;8948;51.534;8.262;2023-04-24T08:15:19;12.10;61.30
17659;DHT22;8948;51.534;8.262;2023-04-24T08:20:19;12.00;61.10
17659;DHT22;8948;51.534;8.262;2023-04-24T08:25:20;11.70;61.30
17659;DHT22;8948;51.534;8.262;2023-04-24T08:30:21;11.50;62.00
17659;DHT22;8948;51.534;8.262;2023-04-24T08:35:21;11.10;63.50
17659;DHT22;8948;51.534;8.262;2023-04-24T08:40:28;11.10;63.40
17659;DHT22;8948;51.534;8.262;2023-04-24T08:45:32;11.20;64.00
17659;DHT22;8948;51.534;8.262;2023-04-24T08:50:34;11.40;62.60
17659;DHT22;8948;51.534;8.262;2023-04-24T08:55:36;12.00;61.20
17659;DHT22;8948;51.534;8.262;2023-04-24T09:00:39;12.10;59.60
17659;DHT22;8948;51.534;8.262;2023-04-24T09:05:40;12.10;59.50
17659;DHT22;8948;51.534;8.262;2023-04-24T09:10:46;12.00;60.00
17659;DHT22;8948;51.534;8.262;2023-04-24T09:15:47;11.80;59.80
17659;DHT22;8948;51.534;8.262;2023-04-24T09:20:58;11.60;60.50
17659;DHT22;8948;51.534;8.262;2023-04-24T09:26:00;11.70;61.40
17659;DHT22;8948;51.534;8.262;2023-04-24T09:31:09;11.20;63.20
17659;DHT22;8948;51.534;8.262;2023-04-24T09:36:10;10.80;66.00
17659;DHT22;8948;51.534;8.262;2023-04-24T09:41:13;10.90;65.80
17659;DHT22;8948;51.534;8.262;2023-04-24T09:46:14;11.20;64.80
17659;DHT22;8948;51.534;8.262;2023-04-24T09:51:15;11.30;65.60
17659;DHT22;8948;51.534;8.262;2023-04-24T09:56:16;10.90;65.10
17659;DHT22;8948;51.534;8.262;2023-04-24T10:01:24;10.70;66.00
17659;DHT22;8948;51.534;8.262;2023-04-24T10:06:36;10.30;65.70
17659;DHT22;8948;51.534;8.262;2023-04-24T10:11:37;10.10;66.80
17659;DHT22;8948;51.534;8.262;2023-04-24T10:16:41;10.00;67.40
17659;DHT22;8948;51.534;8.262;2023-04-24T10:21:44;10.10;68.30
17659;DHT22;8948;51.534;8.262;2023-04-24T10:26:47;10.10;67.80
17659;DHT22;8948;51.534;8.262;2023-04-24T10:31:50;10.10;69.20
17659;DHT22;8948;51.534;8.262;2023-04-24T10:36:52;10.20;68.70
17659;DHT22;8948;51.534;8.262;2023-04-24T10:41:55;10.10;68.60
17659;DHT22;8948;51.534;8.262;2023-04-24T10:46:58;10.00;70.20
17659;DHT22;8948;51.534;8.262;2023-04-24T10:52:02;10.00;71.50
17659;DHT22;8948;51.534;8.262;2023-04-24T11:02:38;9.90;72.30
17659;DHT22;8948;51.534;8.262;2023-04-24T11:08:15;9.90;71.50
17659;DHT22;8948;51.534;8.262;2023-04-24T11:13:21;10.10;72.60
17659;DHT22;8948;51.534;8.262;2023-04-24T11:18:22;10.10;71.70
17659;DHT22;8948;51.534;8.262;2023-04-24T11:23:23;10.10;72.70
17659;DHT22;8948;51.534;8.262;2023-04-24T11:28:24;9.80;71.80
17659;DHT22;8948;51.534;8.262;2023-04-24T11:33:25;9.50;73.60
17659;DHT22;8948;51.534;8.262;2023-04-24T11:38:25;9.30;73.80
17659;DHT22;8948;51.534;8.262;2023-04-24T11:43:26;9.10;73.70
17659;DHT22;8948;51.534;8.262;2023-04-24T11:48:28;9.20;74.20
17659;DHT22;8948;51.534;8.262;2023-04-24T11:53:30;9.20;75.20
17659;DHT22;8948;51.534;8.262;2023-04-24T11:58:40;9.40;74.90
17659;DHT22;8948;51.534;8.262;2023-04-24T12:03:41;9.40;74.70
17659;DHT22;8948;51.534;8.262;2023-04-24T12:08:47;9.50;75.20
17659;DHT22;8948;51.534;8.262;2023-04-24T12:13:48;9.40;73.90
17659;DHT22;8948;51.534;8.262;2023-04-24T12:18:51;9.40;74.10
17659;DHT22;8948;51.534;8.262;2023-04-24T12:23:54;9.40;73.80
17659;DHT22;8948;51.534;8.262;2023-04-24T12:28:55;9.50;74.00
17659;DHT22;8948;51.534;8.262;2023-04-24T12:34:01;9.40;74.50
17659;DHT22;8948;51.534;8.262;2023-04-24T12:39:02;9.40;75.00
17659;DHT22;8948;51.534;8.262;2023-04-24T12:44:02;9.40;75.10
17659;DHT22;8948;51.534;8.262;2023-04-24T12:49:03;9.50;73.70
17659;DHT22;8948;51.534;8.262;2023-04-24T12:54:03;9.70;73.00
17659;DHT22;8948;51.534;8.262;2023-04-24T12:59:04;9.90;72.30
17659;DHT22;8948;51.534;8.262;2023-04-24T13:04:05;9.90;72.10
17659;DHT22;8948;51.534;8.262;2023-04-24T13:09:06;9.90;73.70
17659;DHT22;8948;51.534;8.262;2023-04-24T13:14:07;9.80;74.30
17659;DHT22;8948;51.534;8.262;2023-04-24T13:19:07;9.80;74.40
17659;DHT22;8948;51.534;8.262;2023-04-24T13:24:08;9.70;73.60
17659;DHT22;8948;51.534;8.262;2023-04-24T13:29:09;9.60;73.50
17659;DHT22;8948;51.534;8.262;2023-04-24T13:34:10;9.70;72.50
17659;DHT22;8948;51.534;8.262;2023-04-24T13:39:11;9.80;72.70
17659;DHT22;8948;51.534;8.262;2023-04-24T13:44:11;10.40;72.70
17659;DHT22;8948;51.534;8.262;2023-04-24T13:49:13;11.10;69.70
17659;DHT22;8948;51.534;8.262;2023-04-24T13:54:14;10.80;68.00
17659;DHT22;8948;51.534;8.262;2023-04-24T13:59:14;10.50;70.10
17659;DHT22;8948;51.534;8.262;2023-04-24T14:04:15;10.10;69.10
17659;DHT22;8948;51.534;8.262;2023-04-24T14:09:16;9.90;70.00
17659;DHT22;8948;51.534;8.262;2023-04-24T14:14:16;9.70;69.50
17659;DHT22;8948;51.534;8.262;2023-04-24T14:19:17;9.60;70.50
17659;DHT22;8948;51.534;8.262;2023-04-24T14:24:18;9.70;70.00
17659;DHT22;8948;51.534;8.262;2023-04-24T14:29:18;10.10;68.20
17659;DHT22;8948;51.534;8.262;2023-04-24T14:34:19;10.20;66.60
17659;DHT22;8948;51.534;8.262;2023-04-24T14:39:20;10.20;67.80
17659;DHT22;8948;51.534;8.262;2023-04-24T14:44:21;10.20;66.10
17659;DHT22;8948;51.534;8.262;2023-04-24T14:49:23;10.10;67.10
17659;DHT22;8948;51.534;8.262;2023-04-24T14:54:23;10.00;65.90
17659;DHT22;8948;51.534;8.262;2023-04-24T14:59:24;10.00;67.10
17659;DHT22;8948;51.534;8.262;2023-04-24T15:04:25;10.00;66.70
17659;DHT22;8948;51.534;8.262;2023-04-24T15:09:25;10.10;67.20
17659;DHT22;8948;51.534;8.262;2023-04-24T15:14:28;10.10;66.60
17659;DHT22;8948;51.534;8.262;2023-04-24T15:19:28;10.30;65.60
17659;DHT22;8948;51.534;8.262;2023-04-24T15:24:29;10.50;64.30
17659;DHT22;8948;51.534;8.262;2023-04-24T15:29:30;10.70;63.80
17659;DHT22;8948;51.534;8.262;2023-04-24T15:34:30;10.50;62.80
17659;DHT22;8948;51.534;8.262;2023-04-24T15:39:32;10.60;62.20
17659;DHT22;8948;51.534;8.262;2023-04-24T15:44:33;10.70;62.70
17659;DHT22;8948;51.534;8.262;2023-04-24T15:49:33;10.50;61.50
17659;DHT22;8948;51.534;8.262;2023-04-24T15:54:34;10.40;62.40
17659;DHT22;8948;51.534;8.262;2023-04-24T15:59:34;10.20;62.30
17659;DHT22;8948;51.534;8.262;2023-04-24T16:04:35;10.10;63.70
17659;DHT22;8948;51.534;8.262;2023-04-24T16:09:36;10.00;65.50
17659;DHT22;8948;51.534;8.262;2023-04-24T16:14:37;9.90;66.70
17659;DHT22;8948;51.534;8.262;2023-04-24T16:19:37;9.80;68.70
17659;DHT22;8948;51.534;8.262;2023-04-24T16:24:38;9.90;68.60
17659;DHT22;8948;51.534;8.262;2023-04-24T16:29:38;9.90;68.70
17659;DHT22;8948;51.534;8.262;2023-04-24T16:34:39;9.80;68.20
17659;DHT22;8948;51.534;8.262;2023-04-24T16:39:39;9.80;68.60
17659;DHT22;8948;51.534;8.262;2023-04-24T16:44:44;9.80;68.70
17659;DHT22;8948;51.534;8.262;2023-04-24T16:49:44;10.00;66.90
17659;DHT22;8948;51.534;8.262;2023-04-24T16:54:45;10.30;66.90
17659;DHT22;8948;51.534;8.262;2023-04-24T16:59:46;10.30;66.20
17659;DHT22;8948;51.534;8.262;2023-04-24T17:04:46;10.20;66.00
17659;DHT22;8948;51.534;8.262;2023-04-24T17:09:47;10.10;66.20
17659;DHT22;8948;51.534;8.262;2023-04-24T17:14:47;10.10;66.40
17659;DHT22;8948;51.534;8.262;2023-04-24T17:19:48;10.00;66.70
17659;DHT22;8948;51.534;8.262;2023-04-24T17:24:50;10.00;66.50
17659;DHT22;8948;51.534;8.262;2023-04-24T17:29:51;9.90;66.40
17659;DHT22;8948;51.534;8.262;2023-04-24T17:34:51;9.90;66.70
17659;DHT22;8948;51.534;8.262;2023-04-24T17:39:52;9.90;66.20
17659;DHT22;8948;51.534;8.262;2023-04-24T17:44:52;9.80;66.20
17659;DHT22;8948;51.534;8.262;2023-04-24T17:49:53;9.80;66.20
17659;DHT22;8948;51.534;8.262;2023-04-24T17:54:53;9.90;66.40
17659;DHT22;8948;51.534;8.262;2023-04-24T17:59:54;9.90;65.80
17659;DHT22;8948;51.534;8.262;2023-04-24T18:04:56;10.00;66.40
17659;DHT22;8948;51.534;8.262;2023-04-24T18:09:57;10.00;66.60
17659;DHT22;8948;51.534;8.262;2023-04-24T18:14:57;9.90;66.50
17659;DHT22;8948;51.534;8.262;2023-04-24T18:19:58;9.90;67.00
17659;DHT22;8948;51.534;8.262;2023-04-24T18:24:59;9.80;67.00
17659;DHT22;8948;51.534;8.262;2023-04-24T18:29:59;9.90;65.90
17659;DHT22;8948;51.534;8.262;2023-04-24T18:35:00;9.80;65.20
17659;DHT22;8948;51.534;8.262;2023-04-24T18:40:01;9.70;64.20
17659;DHT22;8948;51.534;8.262;2023-04-24T18:45:01;9.60;64.20
17659;DHT22;8948;51.534;8.262;2023-04-24T18:50:04;9.60;63.40
17659;DHT22;8948;51.534;8.262;2023-04-24T18:55:05;9.50;64.20
17659;DHT22;8948;51.534;8.262;2023-04-24T19:00:07;9.50;64.50
17659;DHT22;8948;51.534;8.262;2023-04-24T19:05:08;9.50;64.50
17659;DHT22;8948;51.534;8.262;2023-04-24T19:10:10;9.40;64.00
17659;DHT22;8948;51.534;8.262;2023-04-24T19:15:10;9.30;63.20
17659;DHT22;8948;51.534;8.262;2023-04-24T19:20:12;9.20;62.60
17659;DHT22;8948;51.534;8.262;2023-04-24T19:25:12;9.20;63.00
17659;DHT22;8948;51.534;8.262;2023-04-24T19:30:13;9.10;63.10
17659;DHT22;8948;51.534;8.262;2023-04-24T19:35:14;9.10;63.60
17659;DHT22;8948;51.534;8.262;2023-04-24T19:40:14;9.00;63.90
17659;DHT22;8948;51.534;8.262;2023-04-24T19:45:15;8.80;63.90
17659;DHT22;8948;51.534;8.262;2023-04-24T19:50:15;8.70;63.60
17659;DHT22;8948;51.534;8.262;2023-04-24T19:55:16;8.70;63.90
17659;DHT22;8948;51.534;8.262;2023-04-24T20:00:17;8.60;64.20
17659;DHT22;8948;51.534;8.262;2023-04-24T20:05:18;8.50;64.30
17659;DHT22;8948;51.534;8.262;2023-04-24T20:10:18;8.50;64.60
17659;DHT22;8948;51.534;8.262;2023-04-24T20:15:19;8.40;64.60
17659;DHT22;8948;51.534;8.262;2023-04-24T20:20:20;8.40;64.90
17659;DHT22;8948;51.534;8.262;2023-04-24T20:25:21;8.40;65.50
17659;DHT22;8948;51.534;8.262;2023-04-24T20:30:22;8.30;65.50
17659;DHT22;8948;51.534;8.262;2023-04-24T20:35:22;8.20;65.30
17659;DHT22;8948;51.534;8.262;2023-04-24T20:40:24;8.20;65.90
17659;DHT22;8948;51.534;8.262;2023-04-24T20:45:24;8.10;66.20
17659;DHT22;8948;51.534;8.262;2023-04-24T20:50:25;8.10;66.30
17659;DHT22;8948;51.534;8.262;2023-04-24T20:55:25;8.00;66.90
17659;DHT22;8948;51.534;8.262;2023-04-24T21:00:27;8.00;67.20
17659;DHT22;8948;51.534;8.262;2023-04-24T21:05:28;7.90;67.30
17659;DHT22;8948;51.534;8.262;2023-04-24T21:10:28;7.90;67.60
17659;DHT22;8948;51.534;8.262;2023-04-24T21:15:29;7.90;67.60
17659;DHT22;8948;51.534;8.262;2023-04-24T21:20:30;7.90;67.90
17659;DHT22;8948;51.534;8.262;2023-04-24T21:25:31;7.90;68.30
17659;DHT22;8948;51.534;8.262;2023-04-24T21:30:31;8.00;68.20
17659;DHT22;8948;51.534;8.262;2023-04-24T21:35:32;8.00;68.00
17659;DHT22;8948;51.534;8.262;2023-04-24T21:40:32;8.10;68.00
17659;DHT22;8948;51.534;8.262;2023-04-24T21:45:33;8.10;67.80
17659;DHT22;8948;51.534;8.262;2023-04-24T21:50:33;8.00;68.10
17659;DHT22;8948;51.534;8.262;2023-04-24T21:55:34;8.00;68.10
17659;DHT22;8948;51.534;8.262;2023-04-24T22:00:35;8.00;68.00
17659;DHT22;8948;51.534;8.262;2023-04-24T22:05:36;7.90;68.20
17659;DHT22;8948;51.534;8.262;2023-04-24T22:10:36;8.00;68.20
17659;DHT22;8948;51.534;8.262;2023-04-24T22:15:37;7.90;68.60
17659;DHT22;8948;51.534;8.262;2023-04-24T22:20:37;7.90;68.30
17659;DHT22;8948;51.534;8.262;2023-04-24T22:25:39;7.90;68.70
17659;DHT22;8948;51.534;8.262;2023-04-24T22:30:39;7.90;68.80
17659;DHT22;8948;51.534;8.262;2023-04-24T22:35:40;7.80;68.70
17659;DHT22;8948;51.534;8.262;2023-04-24T22:40:41;7.70;68.60
17659;DHT22;8948;51.534;8.262;2023-04-24T22:45:42;7.60;69.20
17659;DHT22;8948;51.534;8.262;2023-04-24T22:50:42;7.50;69.30
17659;DHT22;8948;51.534;8.262;2023-04-24T22:55:43;7.50;69.20
17659;DHT22;8948;51.534;8.262;2023-04-24T23:00:43;7.50;68.80
17659;DHT22;8948;51.534;8.262;2023-04-24T23:05:44;7.50;68.70
17659;DHT22;8948;51.534;8.262;2023-04-24T23:10:45;7.40;69.00
17659;DHT22;8948;51.534;8.262;2023-04-24T23:15:45;7.40;69.10
17659;DHT22;8948;51.534;8.262;2023-04-24T23:20:46;7.40;69.30
17659;DHT22;8948;51.534;8.262;2023-04-24T23:25:46;7.30;69.80
17659;DHT22;8948;51.534;8.262;2023-04-24T23:30:47;7.20;69.90
17659;DHT22;8948;51.534;8.262;2023-04-24T23:35:47;7.20;70.00
17659;DHT22;8948;51.534;8.262;2023-04-24T23:40:48;7.10;70.00
17659;DHT22;8948;51.534;8.262;2023-04-24T23:45:51;7.10;70.30
17659;DHT22;8948;51.534;8.262;2023-04-24T23:50:52;7.00;70.80
17659;DHT22;8948;51.534;8.262;2023-04-24T23:55:53;7.10;70.60
